Ouro Fino, Brazil
Current Conditions -  °F | °C
As of 6:00 PM on Thursday 23 Oct 2014 (Local Time) from SBYS Reporting Station
Scattered Clouds Scattered Clouds  
Wind Chill: 88°   Ceiling: Unl
Heat Index: 88°   Visibility: 6mi
Dew Point: 55°   Wind: 5mph
Humidity: 33%   Direction: 170°S
Pressure: 29.91"   Gusts: NA
Location:  22.28°S, 46.37°W
Report Text: SBYS 232000Z 17004KT 9999 SCT045 FEW050TCU 31/13 Q1013
Loading
Personal Weather Stations






























Interactive Weather Map
Tropical Storm Tracking
New forecast layout! Learn more

10-Day Weather Forecast

Advertisements
Track Severe Weather on mobile